sensor_id;sensor_type;location;lat;lon;timestamp;pressure;altitude;pressure_sealevel;temperature;humidity
36138;BME280;22194;50.046;21.954;2022-11-20T00:01:34;98753.44;;;-4.24;73.24
36138;BME280;22194;50.046;21.954;2022-11-20T00:04:03;98745.44;;;-4.22;73.19
36138;BME280;22194;50.046;21.954;2022-11-20T00:06:30;98752.00;;;-4.21;73.32
36138;BME280;22194;50.046;21.954;2022-11-20T00:09:01;98747.15;;;-4.20;73.40
36138;BME280;22194;50.046;21.954;2022-11-20T00:11:31;98749.59;;;-4.21;73.27
36138;BME280;22194;50.046;21.954;2022-11-20T00:14:02;98754.80;;;-4.22;73.24
36138;BME280;22194;50.046;21.954;2022-11-20T00:16:32;98758.46;;;-4.24;73.35
36138;BME280;22194;50.046;21.954;2022-11-20T00:19:02;98752.64;;;-4.28;73.30
36138;BME280;22194;50.046;21.954;2022-11-20T00:21:30;98749.75;;;-4.30;73.25
36138;BME280;22194;50.046;21.954;2022-11-20T00:24:00;98748.02;;;-4.30;73.45
36138;BME280;22194;50.046;21.954;2022-11-20T00:26:30;98746.84;;;-4.32;73.35
36138;BME280;22194;50.046;21.954;2022-11-20T00:29:00;98744.46;;;-4.34;73.51
36138;BME280;22194;50.046;21.954;2022-11-20T00:31:30;98739.65;;;-4.37;73.34
36138;BME280;22194;50.046;21.954;2022-11-20T00:33:58;98737.92;;;-4.37;73.16
36138;BME280;22194;50.046;21.954;2022-11-20T00:36:29;98741.90;;;-4.36;73.52
36138;BME280;22194;50.046;21.954;2022-11-20T00:39:00;98749.12;;;-4.34;73.34
36138;BME280;22194;50.046;21.954;2022-11-20T00:41:29;98751.37;;;-4.33;73.26
36138;BME280;22194;50.046;21.954;2022-11-20T00:43:58;98753.80;;;-4.33;73.25
36138;BME280;22194;50.046;21.954;2022-11-20T00:46:28;98750.84;;;-4.33;73.30
36138;BME280;22194;50.046;21.954;2022-11-20T00:48:56;98745.14;;;-4.34;73.57
36138;BME280;22194;50.046;21.954;2022-11-20T00:51:27;98741.86;;;-4.34;73.58
36138;BME280;22194;50.046;21.954;2022-11-20T00:53:57;98738.73;;;-4.33;73.45
36138;BME280;22194;50.046;21.954;2022-11-20T00:56:28;98738.20;;;-4.33;73.33
36138;BME280;22194;50.046;21.954;2022-11-20T00:59:00;98731.45;;;-4.33;73.71
36138;BME280;22194;50.046;21.954;2022-11-20T01:01:29;98728.49;;;-4.32;73.56
36138;BME280;22194;50.046;21.954;2022-11-20T01:04:00;98736.23;;;-4.29;73.49
36138;BME280;22194;50.046;21.954;2022-11-20T01:06:33;98730.66;;;-4.28;73.64
36138;BME280;22194;50.046;21.954;2022-11-20T01:09:07;98727.67;;;-4.25;73.44
36138;BME280;22194;50.046;21.954;2022-11-20T01:11:39;98725.52;;;-4.22;73.56
36138;BME280;22194;50.046;21.954;2022-11-20T01:14:12;98724.28;;;-4.20;73.70
36138;BME280;22194;50.046;21.954;2022-11-20T01:16:51;98723.23;;;-4.19;73.78
36138;BME280;22194;50.046;21.954;2022-11-20T01:19:22;98731.23;;;-4.21;73.72
36138;BME280;22194;50.046;21.954;2022-11-20T01:21:53;98741.45;;;-4.22;73.51
36138;BME280;22194;50.046;21.954;2022-11-20T01:24:23;98750.44;;;-4.20;73.54
36138;BME280;22194;50.046;21.954;2022-11-20T01:26:52;98750.27;;;-4.20;73.52
36138;BME280;22194;50.046;21.954;2022-11-20T01:29:24;98749.80;;;-4.23;73.42
36138;BME280;22194;50.046;21.954;2022-11-20T01:31:52;98743.39;;;-4.23;73.64
36138;BME280;22194;50.046;21.954;2022-11-20T01:34:22;98736.73;;;-4.19;73.66
36138;BME280;22194;50.046;21.954;2022-11-20T01:36:51;98733.04;;;-4.15;73.64
36138;BME280;22194;50.046;21.954;2022-11-20T01:39:23;98735.41;;;-4.12;73.60
36138;BME280;22194;50.046;21.954;2022-11-20T01:41:55;98736.98;;;-4.13;73.58
36138;BME280;22194;50.046;21.954;2022-11-20T01:44:53;98733.02;;;-4.13;73.81
36138;BME280;22194;50.046;21.954;2022-11-20T01:47:33;98730.44;;;-4.15;73.87
36138;BME280;22194;50.046;21.954;2022-11-20T01:50:26;98736.52;;;-4.17;73.74
36138;BME280;22194;50.046;21.954;2022-11-20T01:53:05;98741.45;;;-4.21;73.74
36138;BME280;22194;50.046;21.954;2022-11-20T01:55:47;98740.16;;;-4.26;73.60
36138;BME280;22194;50.046;21.954;2022-11-20T01:58:23;98731.84;;;-4.26;73.78
36138;BME280;22194;50.046;21.954;2022-11-20T02:00:53;98728.85;;;-4.24;73.81
36138;BME280;22194;50.046;21.954;2022-11-20T02:03:24;98727.80;;;-4.23;74.00
36138;BME280;22194;50.046;21.954;2022-11-20T02:06:23;98727.58;;;-4.21;73.61
36138;BME280;22194;50.046;21.954;2022-11-20T02:08:54;98724.98;;;-4.19;73.76
36138;BME280;22194;50.046;21.954;2022-11-20T02:11:22;98717.34;;;-4.18;74.06
36138;BME280;22194;50.046;21.954;2022-11-20T02:13:50;98721.83;;;-4.18;74.22
36138;BME280;22194;50.046;21.954;2022-11-20T02:16:23;98716.14;;;-4.19;74.05
36138;BME280;22194;50.046;21.954;2022-11-20T02:18:55;98713.89;;;-4.19;73.98
36138;BME280;22194;50.046;21.954;2022-11-20T02:24:08;98704.09;;;-4.14;73.93
36138;BME280;22194;50.046;21.954;2022-11-20T02:26:48;98700.23;;;-4.11;73.95
36138;BME280;22194;50.046;21.954;2022-11-20T02:31:55;98699.50;;;-4.09;73.85
36138;BME280;22194;50.046;21.954;2022-11-20T02:34:23;98697.64;;;-4.11;73.65
36138;BME280;22194;50.046;21.954;2022-11-20T02:36:53;98695.55;;;-4.20;73.39
36138;BME280;22194;50.046;21.954;2022-11-20T02:39:24;98684.96;;;-4.28;73.36
36138;BME280;22194;50.046;21.954;2022-11-20T02:41:55;98684.95;;;-4.27;73.43
36138;BME280;22194;50.046;21.954;2022-11-20T02:44:23;98683.89;;;-4.26;73.47
36138;BME280;22194;50.046;21.954;2022-11-20T02:46:58;98688.70;;;-4.25;73.70
36138;BME280;22194;50.046;21.954;2022-11-20T02:49:26;98694.75;;;-4.24;73.73
36138;BME280;22194;50.046;21.954;2022-11-20T02:51:54;98699.41;;;-4.23;73.56
36138;BME280;22194;50.046;21.954;2022-11-20T02:54:24;98702.49;;;-4.22;73.87
36138;BME280;22194;50.046;21.954;2022-11-20T02:56:52;98698.69;;;-4.21;73.75
36138;BME280;22194;50.046;21.954;2022-11-20T02:59:21;98692.64;;;-4.22;73.70
36138;BME280;22194;50.046;21.954;2022-11-20T03:01:50;98698.56;;;-4.24;73.51
36138;BME280;22194;50.046;21.954;2022-11-20T03:04:21;98700.20;;;-4.28;73.54
36138;BME280;22194;50.046;21.954;2022-11-20T03:06:49;98703.08;;;-4.34;73.58
36138;BME280;22194;50.046;21.954;2022-11-20T03:09:17;98707.45;;;-4.37;73.82
36138;BME280;22194;50.046;21.954;2022-11-20T03:11:46;98704.02;;;-4.38;73.80
36138;BME280;22194;50.046;21.954;2022-11-20T03:14:16;98705.53;;;-4.36;73.88
36138;BME280;22194;50.046;21.954;2022-11-20T03:16:44;98702.56;;;-4.35;73.88
36138;BME280;22194;50.046;21.954;2022-11-20T03:19:12;98692.71;;;-4.36;73.61
36138;BME280;22194;50.046;21.954;2022-11-20T03:21:41;98688.79;;;-4.39;73.61
36138;BME280;22194;50.046;21.954;2022-11-20T03:24:09;98685.52;;;-4.40;73.66
36138;BME280;22194;50.046;21.954;2022-11-20T03:26:39;98688.63;;;-4.40;73.79
36138;BME280;22194;50.046;21.954;2022-11-20T03:29:08;98689.98;;;-4.38;73.68
36138;BME280;22194;50.046;21.954;2022-11-20T03:31:39;98688.23;;;-4.37;73.76
36138;BME280;22194;50.046;21.954;2022-11-20T03:34:11;98686.70;;;-4.38;73.75
36138;BME280;22194;50.046;21.954;2022-11-20T03:36:40;98686.20;;;-4.38;73.88
36138;BME280;22194;50.046;21.954;2022-11-20T03:39:11;98680.89;;;-4.41;73.57
36138;BME280;22194;50.046;21.954;2022-11-20T03:41:41;98671.85;;;-4.40;73.93
36138;BME280;22194;50.046;21.954;2022-11-20T03:44:12;98666.80;;;-4.38;74.00
36138;BME280;22194;50.046;21.954;2022-11-20T03:46:40;98664.88;;;-4.37;73.76
36138;BME280;22194;50.046;21.954;2022-11-20T03:49:08;98658.44;;;-4.36;73.70
36138;BME280;22194;50.046;21.954;2022-11-20T03:51:36;98657.05;;;-4.36;73.68
36138;BME280;22194;50.046;21.954;2022-11-20T03:54:08;98652.42;;;-4.38;73.66
36138;BME280;22194;50.046;21.954;2022-11-20T03:56:39;98648.82;;;-4.39;73.64
36138;BME280;22194;50.046;21.954;2022-11-20T03:59:11;98651.60;;;-4.40;73.71
36138;BME280;22194;50.046;21.954;2022-11-20T04:01:40;98652.67;;;-4.42;73.72
36138;BME280;22194;50.046;21.954;2022-11-20T04:04:14;98650.83;;;-4.45;73.60
36138;BME280;22194;50.046;21.954;2022-11-20T04:06:42;98648.61;;;-4.48;73.68
36138;BME280;22194;50.046;21.954;2022-11-20T04:09:10;98650.02;;;-4.48;73.96
36138;BME280;22194;50.046;21.954;2022-11-20T04:11:41;98643.88;;;-4.53;73.56
36138;BME280;22194;50.046;21.954;2022-11-20T04:14:17;98634.43;;;-4.58;73.68
36138;BME280;22194;50.046;21.954;2022-11-20T04:16:45;98635.16;;;-4.59;73.59
36138;BME280;22194;50.046;21.954;2022-11-20T04:19:16;98637.61;;;-4.61;73.46
36138;BME280;22194;50.046;21.954;2022-11-20T04:21:44;98643.37;;;-4.64;73.58
36138;BME280;22194;50.046;21.954;2022-11-20T04:24:12;98648.11;;;-4.68;73.50
36138;BME280;22194;50.046;21.954;2022-11-20T04:26:42;98648.80;;;-4.68;73.65
36138;BME280;22194;50.046;21.954;2022-11-20T04:29:12;98651.06;;;-4.68;73.47
36138;BME280;22194;50.046;21.954;2022-11-20T04:31:40;98652.30;;;-4.70;73.53
36138;BME280;22194;50.046;21.954;2022-11-20T04:34:12;98657.52;;;-4.71;73.71
36138;BME280;22194;50.046;21.954;2022-11-20T04:36:40;98655.80;;;-4.71;73.79
36138;BME280;22194;50.046;21.954;2022-11-20T04:39:13;98647.34;;;-4.73;73.83
36138;BME280;22194;50.046;21.954;2022-11-20T04:41:48;98649.77;;;-4.73;73.74
36138;BME280;22194;50.046;21.954;2022-11-20T04:44:36;98641.30;;;-4.74;73.68
36138;BME280;22194;50.046;21.954;2022-11-20T04:47:04;98637.01;;;-4.75;73.85
36138;BME280;22194;50.046;21.954;2022-11-20T04:49:31;98637.88;;;-4.75;73.56
36138;BME280;22194;50.046;21.954;2022-11-20T04:52:02;98639.44;;;-4.76;73.72
36138;BME280;22194;50.046;21.954;2022-11-20T04:54:30;98638.98;;;-4.79;73.50
36138;BME280;22194;50.046;21.954;2022-11-20T04:56:57;98639.20;;;-4.83;73.88
36138;BME280;22194;50.046;21.954;2022-11-20T04:59:25;98635.41;;;-4.84;73.82
36138;BME280;22194;50.046;21.954;2022-11-20T05:01:55;98636.12;;;-4.85;73.71
36138;BME280;22194;50.046;21.954;2022-11-20T05:04:25;98645.49;;;-4.87;73.74
36138;BME280;22194;50.046;21.954;2022-11-20T05:06:52;98651.39;;;-4.88;73.83
36138;BME280;22194;50.046;21.954;2022-11-20T05:09:20;98649.35;;;-4.89;73.93
36138;BME280;22194;50.046;21.954;2022-11-20T05:11:49;98652.66;;;-4.90;73.76
36138;BME280;22194;50.046;21.954;2022-11-20T05:14:19;98659.91;;;-4.90;73.79
36138;BME280;22194;50.046;21.954;2022-11-20T05:16:48;98659.73;;;-4.90;73.80
36138;BME280;22194;50.046;21.954;2022-11-20T05:19:16;98663.70;;;-4.89;73.70
36138;BME280;22194;50.046;21.954;2022-11-20T05:21:46;98663.52;;;-4.89;73.85
36138;BME280;22194;50.046;21.954;2022-11-20T05:24:14;98669.02;;;-4.88;73.93
36138;BME280;22194;50.046;21.954;2022-11-20T05:26:41;98672.64;;;-4.87;73.93
36138;BME280;22194;50.046;21.954;2022-11-20T05:29:11;98674.37;;;-4.87;73.99
36138;BME280;22194;50.046;21.954;2022-11-20T05:31:42;98668.48;;;-4.86;73.96
36138;BME280;22194;50.046;21.954;2022-11-20T05:34:11;98656.18;;;-4.85;74.11
36138;BME280;22194;50.046;21.954;2022-11-20T05:36:39;98650.48;;;-4.85;73.76
36138;BME280;22194;50.046;21.954;2022-11-20T05:39:07;98644.43;;;-4.85;73.67
36138;BME280;22194;50.046;21.954;2022-11-20T05:41:38;98650.86;;;-4.87;73.75
36138;BME280;22194;50.046;21.954;2022-11-20T05:44:05;98645.19;;;-4.89;73.79
36138;BME280;22194;50.046;21.954;2022-11-20T05:46:33;98633.46;;;-4.90;73.92
36138;BME280;22194;50.046;21.954;2022-11-20T05:49:03;98643.52;;;-4.92;73.63
36138;BME280;22194;50.046;21.954;2022-11-20T05:51:31;98646.13;;;-4.94;73.73
36138;BME280;22194;50.046;21.954;2022-11-20T05:53:59;98646.48;;;-4.95;73.89
36138;BME280;22194;50.046;21.954;2022-11-20T05:56:27;98646.16;;;-4.96;73.48
36138;BME280;22194;50.046;21.954;2022-11-20T05:58:57;98647.91;;;-4.97;73.67
36138;BME280;22194;50.046;21.954;2022-11-20T06:01:26;98642.23;;;-4.99;73.80
36138;BME280;22194;50.046;21.954;2022-11-20T06:03:54;98653.53;;;-5.02;73.62
36138;BME280;22194;50.046;21.954;2022-11-20T06:06:24;98657.67;;;-5.02;73.75
36138;BME280;22194;50.046;21.954;2022-11-20T06:08:56;98651.98;;;-5.02;73.73
36138;BME280;22194;50.046;21.954;2022-11-20T06:11:26;98658.37;;;-5.02;73.65
36138;BME280;22194;50.046;21.954;2022-11-20T06:13:54;98656.97;;;-5.01;73.77
36138;BME280;22194;50.046;21.954;2022-11-20T06:16:22;98646.77;;;-5.01;73.56
36138;BME280;22194;50.046;21.954;2022-11-20T06:18:50;98631.58;;;-5.03;73.79
36138;BME280;22194;50.046;21.954;2022-11-20T06:21:23;98628.96;;;-5.02;73.58
36138;BME280;22194;50.046;21.954;2022-11-20T06:23:52;98632.45;;;-5.03;73.78
36138;BME280;22194;50.046;21.954;2022-11-20T06:26:27;98632.67;;;-5.07;73.70
36138;BME280;22194;50.046;21.954;2022-11-20T06:28:55;98630.11;;;-5.08;73.50
36138;BME280;22194;50.046;21.954;2022-11-20T06:31:27;98643.91;;;-5.07;73.75
36138;BME280;22194;50.046;21.954;2022-11-20T06:33:55;98648.23;;;-5.06;73.79
36138;BME280;22194;50.046;21.954;2022-11-20T06:36:23;98649.93;;;-5.04;73.66
36138;BME280;22194;50.046;21.954;2022-11-20T06:38:51;98655.41;;;-5.01;73.64
36138;BME280;22194;50.046;21.954;2022-11-20T06:41:23;98662.11;;;-4.97;73.92
36138;BME280;22194;50.046;21.954;2022-11-20T06:43:53;98656.32;;;-4.92;73.81
36138;BME280;22194;50.046;21.954;2022-11-20T06:46:21;98658.50;;;-4.89;73.80
36138;BME280;22194;50.046;21.954;2022-11-20T06:48:51;98667.08;;;-4.85;73.88
36138;BME280;22194;50.046;21.954;2022-11-20T06:51:18;98660.96;;;-4.81;73.89
36138;BME280;22194;50.046;21.954;2022-11-20T06:53:48;98648.11;;;-4.77;74.05
36138;BME280;22194;50.046;21.954;2022-11-20T06:56:16;98642.33;;;-4.72;73.93
36138;BME280;22194;50.046;21.954;2022-11-20T06:58:44;98636.13;;;-4.66;73.78
36138;BME280;22194;50.046;21.954;2022-11-20T07:01:14;98624.30;;;-4.61;73.90
36138;BME280;22194;50.046;21.954;2022-11-20T07:03:43;98623.90;;;-4.59;73.86
36138;BME280;22194;50.046;21.954;2022-11-20T07:06:15;98623.84;;;-4.55;73.99
36138;BME280;22194;50.046;21.954;2022-11-20T07:08:43;98622.67;;;-4.49;74.06
36138;BME280;22194;50.046;21.954;2022-11-20T07:11:12;98626.84;;;-4.41;73.99
36138;BME280;22194;50.046;21.954;2022-11-20T07:13:41;98622.02;;;-4.33;74.08
36138;BME280;22194;50.046;21.954;2022-11-20T07:16:09;98624.64;;;-4.25;74.02
36138;BME280;22194;50.046;21.954;2022-11-20T07:18:37;98615.72;;;-4.20;74.02
36138;BME280;22194;50.046;21.954;2022-11-20T07:21:08;98612.85;;;-4.15;74.14
36138;BME280;22194;50.046;21.954;2022-11-20T07:23:39;98610.60;;;-4.07;74.20
36138;BME280;22194;50.046;21.954;2022-11-20T07:26:10;98616.48;;;-3.97;74.25
36138;BME280;22194;50.046;21.954;2022-11-20T07:28:38;98616.46;;;-3.88;74.42
36138;BME280;22194;50.046;21.954;2022-11-20T07:31:06;98613.66;;;-3.79;74.34
36138;BME280;22194;50.046;21.954;2022-11-20T07:33:44;98617.65;;;-3.70;74.51
36138;BME280;22194;50.046;21.954;2022-11-20T07:36:12;98622.56;;;-3.66;74.26
36138;BME280;22194;50.046;21.954;2022-11-20T07:38:39;98617.59;;;-3.60;74.30
36138;BME280;22194;50.046;21.954;2022-11-20T07:41:07;98616.20;;;-3.52;74.49
36138;BME280;22194;50.046;21.954;2022-11-20T07:43:35;98615.03;;;-3.47;74.44
36138;BME280;22194;50.046;21.954;2022-11-20T07:46:08;98615.08;;;-3.42;74.31
36138;BME280;22194;50.046;21.954;2022-11-20T07:48:37;98614.96;;;-3.36;74.43
36138;BME280;22194;50.046;21.954;2022-11-20T07:51:08;98605.15;;;-3.32;74.58
36138;BME280;22194;50.046;21.954;2022-11-20T07:53:36;98605.14;;;-3.24;74.49
36138;BME280;22194;50.046;21.954;2022-11-20T07:56:05;98601.84;;;-3.17;74.62
36138;BME280;22194;50.046;21.954;2022-11-20T07:58:34;98604.47;;;-3.10;74.61
36138;BME280;22194;50.046;21.954;2022-11-20T08:01:04;98604.10;;;-3.03;74.65
36138;BME280;22194;50.046;21.954;2022-11-20T08:03:33;98600.27;;;-2.95;74.65
36138;BME280;22194;50.046;21.954;2022-11-20T08:06:01;98597.82;;;-2.87;74.75
36138;BME280;22194;50.046;21.954;2022-11-20T08:08:31;98591.91;;;-2.80;74.69
36138;BME280;22194;50.046;21.954;2022-11-20T08:11:01;98586.91;;;-2.75;74.83
36138;BME280;22194;50.046;21.954;2022-11-20T08:13:48;98580.30;;;-2.67;74.74
36138;BME280;22194;50.046;21.954;2022-11-20T08:16:35;98580.09;;;-2.60;74.78
36138;BME280;22194;50.046;21.954;2022-11-20T08:19:03;98576.45;;;-2.53;74.67
36138;BME280;22194;50.046;21.954;2022-11-20T08:21:31;98577.30;;;-2.46;74.68
36138;BME280;22194;50.046;21.954;2022-11-20T08:24:05;98576.94;;;-2.40;74.73
36138;BME280;22194;50.046;21.954;2022-11-20T08:26:38;98576.50;;;-2.36;74.70
36138;BME280;22194;50.046;21.954;2022-11-20T08:29:06;98575.50;;;-2.31;74.77
36138;BME280;22194;50.046;21.954;2022-11-20T08:31:35;98573.61;;;-2.26;74.65
36138;BME280;22194;50.046;21.954;2022-11-20T08:34:23;98567.59;;;-2.22;74.86
36138;BME280;22194;50.046;21.954;2022-11-20T08:36:51;98563.83;;;-2.18;74.84
36138;BME280;22194;50.046;21.954;2022-11-20T08:39:19;98569.98;;;-2.14;74.83
36138;BME280;22194;50.046;21.954;2022-11-20T08:41:50;98570.42;;;-2.11;74.86
36138;BME280;22194;50.046;21.954;2022-11-20T08:44:18;98564.20;;;-2.13;74.61
36138;BME280;22194;50.046;21.954;2022-11-20T08:46:46;98570.60;;;-2.18;74.64
36138;BME280;22194;50.046;21.954;2022-11-20T08:49:16;98576.98;;;-2.22;74.71
36138;BME280;22194;50.046;21.954;2022-11-20T08:51:44;98575.77;;;-2.22;74.71
36138;BME280;22194;50.046;21.954;2022-11-20T08:54:12;98579.70;;;-2.14;74.81
36138;BME280;22194;50.046;21.954;2022-11-20T08:56:42;98582.88;;;-2.04;74.73
36138;BME280;22194;50.046;21.954;2022-11-20T08:59:10;98579.37;;;-1.97;74.72
36138;BME280;22194;50.046;21.954;2022-11-20T09:01:58;98574.22;;;-1.92;74.71
36138;BME280;22194;50.046;21.954;2022-11-20T09:04:26;98571.98;;;-1.88;74.87
36138;BME280;22194;50.046;21.954;2022-11-20T09:06:54;98573.37;;;-1.82;74.85
36138;BME280;22194;50.046;21.954;2022-11-20T09:09:24;98579.16;;;-1.78;74.84
36138;BME280;22194;50.046;21.954;2022-11-20T09:11:52;98571.77;;;-1.75;74.94
36138;BME280;22194;50.046;21.954;2022-11-20T09:14:22;98569.37;;;-1.76;74.86
36138;BME280;22194;50.046;21.954;2022-11-20T09:16:57;98576.27;;;-1.74;74.78
36138;BME280;22194;50.046;21.954;2022-11-20T09:19:25;98579.41;;;-1.69;74.82
36138;BME280;22194;50.046;21.954;2022-11-20T09:22:04;98575.39;;;-1.68;74.78
36138;BME280;22194;50.046;21.954;2022-11-20T09:24:32;98571.37;;;-1.67;74.95
36138;BME280;22194;50.046;21.954;2022-11-20T09:27:04;98574.55;;;-1.69;74.79
36138;BME280;22194;50.046;21.954;2022-11-20T09:29:32;98580.58;;;-1.73;74.65
36138;BME280;22194;50.046;21.954;2022-11-20T09:32:01;98582.36;;;-1.74;74.80
36138;BME280;22194;50.046;21.954;2022-11-20T09:34:32;98570.98;;;-1.71;75.01
36138;BME280;22194;50.046;21.954;2022-11-20T09:37:00;98562.43;;;-1.65;75.06
36138;BME280;22194;50.046;21.954;2022-11-20T09:39:34;98563.71;;;-1.56;75.03
36138;BME280;22194;50.046;21.954;2022-11-20T09:42:36;98568.68;;;-1.48;75.16
36138;BME280;22194;50.046;21.954;2022-11-20T09:50:51;98564.14;;;-1.15;75.06
36138;BME280;22194;50.046;21.954;2022-11-20T09:53:36;98579.88;;;-1.06;75.14
36138;BME280;22194;50.046;21.954;2022-11-20T09:56:10;98592.61;;;-0.97;75.03
36138;BME280;22194;50.046;21.954;2022-11-20T09:58:50;98592.73;;;-0.90;75.20
36138;BME280;22194;50.046;21.954;2022-11-20T10:01:21;98592.27;;;-0.81;75.19
36138;BME280;22194;50.046;21.954;2022-11-20T10:04:18;98588.27;;;-0.71;74.91
36138;BME280;22194;50.046;21.954;2022-11-20T10:07:01;98582.19;;;-0.56;75.10
36138;BME280;22194;50.046;21.954;2022-11-20T10:09:54;98577.54;;;-0.42;74.99
36138;BME280;22194;50.046;21.954;2022-11-20T10:20:39;98562.98;;;-0.35;74.76
36138;BME280;22194;50.046;21.954;2022-11-20T10:23:43;98560.48;;;-0.34;74.98
36138;BME280;22194;50.046;21.954;2022-11-20T10:26:26;98559.52;;;-0.26;75.08
36138;BME280;22194;50.046;21.954;2022-11-20T10:29:14;98556.51;;;-0.20;74.99
36138;BME280;22194;50.046;21.954;2022-11-20T10:31:51;98550.35;;;-0.18;75.20
36138;BME280;22194;50.046;21.954;2022-11-20T10:37:15;98543.94;;;-0.15;75.16
36138;BME280;22194;50.046;21.954;2022-11-20T10:42:52;98551.01;;;-0.03;75.22
36138;BME280;22194;50.046;21.954;2022-11-20T10:48:21;98550.17;;;0.01;75.03
36138;BME280;22194;50.046;21.954;2022-11-20T10:53:47;98540.59;;;-0.09;75.26
36138;BME280;22194;50.046;21.954;2022-11-20T11:01:55;98529.29;;;0.14;75.27
36138;BME280;22194;50.046;21.954;2022-11-20T11:04:40;98514.78;;;0.32;75.23
36138;BME280;22194;50.046;21.954;2022-11-20T11:07:26;98503.84;;;0.61;75.67
36138;BME280;22194;50.046;21.954;2022-11-20T11:09:55;98508.77;;;0.82;75.48
36138;BME280;22194;50.046;21.954;2022-11-20T11:12:28;98507.64;;;0.88;75.44
36138;BME280;22194;50.046;21.954;2022-11-20T11:14:58;98511.28;;;0.93;75.16
36138;BME280;22194;50.046;21.954;2022-11-20T11:17:28;98505.42;;;0.99;75.34
36138;BME280;22194;50.046;21.954;2022-11-20T11:20:35;98499.48;;;1.08;75.21
36138;BME280;22194;50.046;21.954;2022-11-20T11:22:59;98493.95;;;1.23;75.11
36138;BME280;22194;50.046;21.954;2022-11-20T11:25:34;98487.71;;;1.38;75.15
36138;BME280;22194;50.046;21.954;2022-11-20T11:30:47;98493.16;;;1.61;75.32
36138;BME280;22194;50.046;21.954;2022-11-20T11:33:22;98497.89;;;1.68;75.02
36138;BME280;22194;50.046;21.954;2022-11-20T11:36:00;98501.41;;;1.75;75.16
36138;BME280;22194;50.046;21.954;2022-11-20T11:38:38;98498.61;;;1.79;74.99
36138;BME280;22194;50.046;21.954;2022-11-20T11:41:12;98491.23;;;1.84;75.05
36138;BME280;22194;50.046;21.954;2022-11-20T11:43:53;98487.33;;;1.85;74.95
36138;BME280;22194;50.046;21.954;2022-11-20T11:46:49;98480.81;;;1.86;74.93
36138;BME280;22194;50.046;21.954;2022-11-20T11:49:21;98481.02;;;2.00;75.11
36138;BME280;22194;50.046;21.954;2022-11-20T11:52:13;98474.90;;;2.12;75.13
36138;BME280;22194;50.046;21.954;2022-11-20T11:57:29;98461.04;;;2.31;75.12
36138;BME280;22194;50.046;21.954;2022-11-20T12:00:14;98456.13;;;2.49;75.35
36138;BME280;22194;50.046;21.954;2022-11-20T12:05:28;98456.04;;;2.76;75.29
36138;BME280;22194;50.046;21.954;2022-11-20T12:08:05;98461.10;;;2.72;75.02
36138;BME280;22194;50.046;21.954;2022-11-20T12:10:57;98467.84;;;2.60;74.70
36138;BME280;22194;50.046;21.954;2022-11-20T12:15:58;98473.92;;;2.58;75.09
36138;BME280;22194;50.046;21.954;2022-11-20T12:18:28;98474.33;;;2.57;74.94
36138;BME280;22194;50.046;21.954;2022-11-20T12:21:28;98477.41;;;2.54;74.88
36138;BME280;22194;50.046;21.954;2022-11-20T12:38:26;98474.05;;;2.41;74.87
36138;BME280;22194;50.046;21.954;2022-11-20T12:53:16;98455.44;;;2.27;74.66
36138;BME280;22194;50.046;21.954;2022-11-20T13:01:49;98454.23;;;2.16;74.56
36138;BME280;22194;50.046;21.954;2022-11-20T13:07:14;98459.38;;;2.03;74.46
36138;BME280;22194;50.046;21.954;2022-11-20T13:09:46;98458.65;;;1.97;74.49
36138;BME280;22194;50.046;21.954;2022-11-20T13:12:25;98454.16;;;1.91;74.47
36138;BME280;22194;50.046;21.954;2022-11-20T13:15:22;98449.65;;;1.87;74.68
36138;BME280;22194;50.046;21.954;2022-11-20T13:17:58;98450.14;;;1.80;74.64
36138;BME280;22194;50.046;21.954;2022-11-20T13:20:29;98452.65;;;1.75;74.72
36138;BME280;22194;50.046;21.954;2022-11-20T13:22:57;98453.03;;;1.70;74.52
36138;BME280;22194;50.046;21.954;2022-11-20T13:25:35;98442.92;;;1.66;74.52
36138;BME280;22194;50.046;21.954;2022-11-20T13:28:27;98438.73;;;1.62;74.59
36138;BME280;22194;50.046;21.954;2022-11-20T13:30:58;98433.39;;;1.57;74.56
36138;BME280;22194;50.046;21.954;2022-11-20T13:33:35;98433.52;;;1.54;74.34
36138;BME280;22194;50.046;21.954;2022-11-20T13:36:26;98435.05;;;1.51;74.37
36138;BME280;22194;50.046;21.954;2022-11-20T13:38:58;98431.52;;;1.48;74.22
36138;BME280;22194;50.046;21.954;2022-11-20T13:41:36;98435.19;;;1.44;74.47
36138;BME280;22194;50.046;21.954;2022-11-20T13:46:42;98435.36;;;1.40;74.32
36138;BME280;22194;50.046;21.954;2022-11-20T13:49:38;98426.97;;;1.40;74.38
36138;BME280;22194;50.046;21.954;2022-11-20T13:52:50;98423.35;;;1.35;74.07
36138;BME280;22194;50.046;21.954;2022-11-20T14:01:16;98403.99;;;1.11;74.23
36138;BME280;22194;50.046;21.954;2022-11-20T14:03:48;98404.98;;;1.04;74.26
36138;BME280;22194;50.046;21.954;2022-11-20T14:06:46;98403.02;;;1.01;74.35
36138;BME280;22194;50.046;21.954;2022-11-20T14:09:30;98404.45;;;0.97;74.27
36138;BME280;22194;50.046;21.954;2022-11-20T14:11:59;98406.84;;;0.90;74.22
36138;BME280;22194;50.046;21.954;2022-11-20T14:14:30;98412.70;;;0.83;74.15
36138;BME280;22194;50.046;21.954;2022-11-20T14:17:32;98414.12;;;0.79;74.18
36138;BME280;22194;50.046;21.954;2022-11-20T14:20:02;98417.45;;;0.70;73.91
36138;BME280;22194;50.046;21.954;2022-11-20T14:22:32;98416.23;;;0.66;74.27
36138;BME280;22194;50.046;21.954;2022-11-20T14:25:20;98417.58;;;0.63;74.10
36138;BME280;22194;50.046;21.954;2022-11-20T14:27:55;98420.94;;;0.62;74.25
36138;BME280;22194;50.046;21.954;2022-11-20T14:30:27;98421.67;;;0.61;74.26
36138;BME280;22194;50.046;21.954;2022-11-20T14:33:01;98425.45;;;0.59;73.92
36138;BME280;22194;50.046;21.954;2022-11-20T14:35:34;98426.20;;;0.57;74.34
36138;BME280;22194;50.046;21.954;2022-11-20T14:38:04;98422.04;;;0.57;74.00
36138;BME280;22194;50.046;21.954;2022-11-20T14:40:38;98423.95;;;0.57;74.15
36138;BME280;22194;50.046;21.954;2022-11-20T14:43:27;98426.98;;;0.55;74.25
36138;BME280;22194;50.046;21.954;2022-11-20T14:46:02;98431.90;;;0.54;74.10
36138;BME280;22194;50.046;21.954;2022-11-20T14:48:48;98436.11;;;0.54;74.60
36138;BME280;22194;50.046;21.954;2022-11-20T14:51:39;98440.00;;;0.53;74.08
36138;BME280;22194;50.046;21.954;2022-11-20T14:54:17;98441.20;;;0.49;74.20